createdAt,value
2022-11-08T00:00:45.361Z,78.39
2022-11-08T00:03:14.718Z,78.23
2022-11-08T00:06:01.619Z,78.63
2022-11-08T00:08:49.385Z,78.24
2022-11-08T00:11:35.860Z,78.14
2022-11-08T00:14:04.971Z,77.96
2022-11-08T00:16:34.379Z,77.93
2022-11-08T00:19:03.605Z,79.63
2022-11-08T00:21:32.984Z,78.15
2022-11-08T00:24:03.605Z,78.15
2022-11-08T00:26:32.972Z,79.39
2022-11-08T00:29:02.535Z,80.56
2022-11-08T00:31:32.097Z,80.45
2022-11-08T00:34:01.149Z,80.53
2022-11-08T00:36:30.570Z,79.88
2022-11-08T00:38:59.733Z,80.83
2022-11-08T00:41:30.588Z,80.20
2022-11-08T00:43:59.614Z,79.87
2022-11-08T00:46:29.058Z,79.67
2022-11-08T00:48:58.360Z,80.74
2022-11-08T00:51:27.940Z,80.15
2022-11-08T00:53:57.028Z,80.22
2022-11-08T00:56:26.710Z,79.08
2022-11-08T00:58:57.212Z,79.66
2022-11-08T01:01:26.786Z,79.62
2022-11-08T01:03:56.041Z,79.45
2022-11-08T01:06:27.003Z,81.23
2022-11-08T01:08:57.313Z,80.57
2022-11-08T01:11:27.672Z,80.06
2022-11-08T01:14:00.634Z,80.21
2022-11-08T01:16:32.508Z,80.83
2022-11-08T01:19:03.560Z,80.59
2022-11-08T01:21:33.097Z,81.65
2022-11-08T01:24:02.143Z,81.64
2022-11-08T01:26:31.968Z,80.75
2022-11-08T01:29:02.404Z,80.84
2022-11-08T01:31:33.326Z,82.23
2022-11-08T01:34:02.518Z,81.66
2022-11-08T01:36:32.061Z,82.18
2022-11-08T01:39:01.250Z,81.10
2022-11-08T01:41:30.554Z,80.90
2022-11-08T01:44:01.851Z,81.76
2022-11-08T01:46:42.667Z,81.42
2022-11-08T01:49:46.059Z,82.99
2022-11-08T01:52:28.704Z,83.21
2022-11-08T01:55:18.857Z,83.03
2022-11-08T01:57:53.521Z,83.23
2022-11-08T02:00:24.507Z,82.21
2022-11-08T02:02:59.021Z,83.25
2022-11-08T02:05:29.735Z,82.95
2022-11-08T02:08:04.335Z,81.92
2022-11-08T02:10:37.190Z,84.12
2022-11-08T02:13:14.201Z,83.18
2022-11-08T02:15:45.833Z,82.46
2022-11-08T02:18:17.046Z,82.83
2022-11-08T02:20:53.711Z,82.66
2022-11-08T02:23:28.178Z,82.22
2022-11-08T02:25:58.648Z,82.19
2022-11-08T02:28:28.097Z,83.05
2022-11-08T02:30:57.256Z,82.05
2022-11-08T02:33:26.535Z,82.56
2022-11-08T02:35:57.801Z,82.25
2022-11-08T02:38:28.243Z,81.59
2022-11-08T02:40:59.416Z,82.01
2022-11-08T02:43:28.895Z,82.24
2022-11-08T02:46:00.043Z,83.47
2022-11-08T02:48:29.697Z,82.05
2022-11-08T02:50:58.893Z,81.41
2022-11-08T02:53:28.532Z,81.17
2022-11-08T02:55:59.166Z,82.64
2022-11-08T02:58:29.146Z,82.07
2022-11-08T03:00:58.358Z,81.60
2022-11-08T03:03:29.606Z,82.71
2022-11-08T03:05:59.161Z,81.53
2022-11-08T03:08:28.599Z,82.57
2022-11-08T03:11:01.440Z,82.26
2022-11-08T03:13:30.748Z,82.92
2022-11-08T03:16:02.653Z,82.77
2022-11-08T03:18:32.414Z,81.29
2022-11-08T03:21:02.510Z,82.77
2022-11-08T03:23:33.039Z,82.80
2022-11-08T03:26:04.925Z,83.61
2022-11-08T03:28:34.505Z,82.34
2022-11-08T03:36:15.924Z,82.60
2022-11-08T03:38:45.370Z,82.22
2022-11-08T03:41:15.797Z,82.71
2022-11-08T03:43:45.077Z,83.33
2022-11-08T03:46:14.151Z,82.93
2022-11-08T03:48:43.517Z,82.97
2022-11-08T03:51:12.975Z,82.37
2022-11-08T03:53:42.250Z,81.13
2022-11-08T03:56:11.377Z,81.77
2022-11-08T03:58:42.115Z,82.15
2022-11-08T04:01:11.217Z,82.03
2022-11-08T04:03:40.673Z,81.09
2022-11-08T04:06:10.619Z,81.36
2022-11-08T04:08:40.036Z,80.69
2022-11-08T04:11:26.350Z,81.27
2022-11-08T04:14:14.572Z,81.26
2022-11-08T04:16:43.703Z,81.64
2022-11-08T04:19:30.198Z,81.48
2022-11-08T04:21:59.445Z,79.54
2022-11-08T04:24:28.854Z,80.53
2022-11-08T04:26:57.946Z,79.95
2022-11-08T04:29:28.864Z,80.42
2022-11-08T04:31:57.886Z,80.78
2022-11-08T04:34:27.367Z,81.18
2022-11-08T04:36:57.186Z,81.18
2022-11-08T04:39:26.542Z,80.66
2022-11-08T04:42:01.731Z,79.81
2022-11-08T04:44:32.955Z,79.43
2022-11-08T04:47:01.961Z,79.87
2022-11-08T04:49:31.363Z,80.45
2022-11-08T04:52:01.480Z,79.66
2022-11-08T04:54:30.781Z,79.34
2022-11-08T04:56:59.797Z,80.18
2022-11-08T04:59:29.292Z,80.34
2022-11-08T05:01:59.903Z,79.89
2022-11-08T05:04:29.520Z,78.85
2022-11-08T05:06:59.024Z,79.66
2022-11-08T05:09:28.470Z,78.62
2022-11-08T05:11:57.523Z,78.92
2022-11-08T05:14:27.257Z,79.78
2022-11-08T05:16:56.518Z,79.35
2022-11-08T05:19:44.829Z,79.16
2022-11-08T05:22:31.399Z,78.37
2022-11-08T05:25:00.877Z,80.26
2022-11-08T05:27:30.020Z,78.88
2022-11-08T05:29:59.503Z,79.40
2022-11-08T05:32:28.660Z,77.96
2022-11-08T05:34:59.617Z,77.34
2022-11-08T05:37:28.810Z,77.64
2022-11-08T05:39:58.226Z,77.23
2022-11-08T05:42:27.390Z,77.79
2022-11-08T05:44:56.930Z,77.05
2022-11-08T05:47:26.122Z,77.67
2022-11-08T05:49:55.682Z,77.97
2022-11-08T05:52:26.167Z,78.16
2022-11-08T05:54:55.553Z,78.81
2022-11-08T05:57:24.574Z,79.64
2022-11-08T05:59:53.970Z,78.40
2022-11-08T06:02:23.358Z,79.13
2022-11-08T06:04:52.837Z,78.96
2022-11-08T06:07:21.812Z,78.58
2022-11-08T06:09:52.792Z,79.15
2022-11-08T06:12:22.034Z,79.22
2022-11-08T06:14:51.560Z,77.55
2022-11-08T06:17:23.809Z,78.67
2022-11-08T06:19:56.991Z,78.33
2022-11-08T06:22:26.085Z,77.62
2022-11-08T06:24:56.780Z,77.64
2022-11-08T06:27:25.892Z,77.33
2022-11-08T06:29:55.324Z,77.27
2022-11-08T06:32:24.394Z,77.32
2022-11-08T06:34:53.712Z,77.97
2022-11-08T06:37:22.870Z,78.01
2022-11-08T06:39:52.330Z,78.49
2022-11-08T06:42:23.018Z,78.48
2022-11-08T06:44:52.542Z,78.76
2022-11-08T06:47:21.684Z,78.46
2022-11-08T06:49:51.012Z,78.31
2022-11-08T06:52:20.056Z,78.47
2022-11-08T06:54:49.416Z,78.86
2022-11-08T06:57:18.589Z,79.30
2022-11-08T06:59:49.476Z,78.62
2022-11-08T07:02:18.936Z,78.11
2022-11-08T07:04:48.691Z,77.71
2022-11-08T07:07:17.846Z,78.63
2022-11-08T07:09:47.251Z,77.98
2022-11-08T07:12:16.458Z,77.47
2022-11-08T07:14:46.052Z,77.25
2022-11-08T07:17:16.760Z,77.21
2022-11-08T07:19:46.223Z,76.71
2022-11-08T07:22:15.321Z,77.19
2022-11-08T07:24:44.830Z,77.39
2022-11-08T07:27:13.900Z,76.72
2022-11-08T07:29:43.290Z,77.06
2022-11-08T07:32:12.435Z,77.30
2022-11-08T07:34:43.177Z,76.05
2022-11-08T07:37:12.216Z,76.45
2022-11-08T07:39:41.613Z,76.11
2022-11-08T07:42:10.709Z,75.03
2022-11-08T07:44:40.015Z,74.83
2022-11-08T07:47:09.039Z,75.08
2022-11-08T07:49:38.484Z,75.63
2022-11-08T07:52:08.923Z,75.40
2022-11-08T07:54:38.393Z,75.65
2022-11-08T07:57:07.376Z,74.67
2022-11-08T07:59:36.823Z,74.24
2022-11-08T08:02:06.177Z,74.73
2022-11-08T08:04:35.886Z,74.21
2022-11-08T08:07:05.409Z,73.42
2022-11-08T08:09:36.247Z,74.71
2022-11-08T08:12:05.682Z,74.14
2022-11-08T08:14:35.018Z,75.23
2022-11-08T08:17:04.342Z,75.64
2022-11-08T08:19:33.985Z,76.16
2022-11-08T08:22:02.999Z,74.63
2022-11-08T08:24:32.487Z,75.73
2022-11-08T08:27:02.944Z,76.17
2022-11-08T08:29:32.342Z,76.34
2022-11-08T08:32:01.422Z,76.04
2022-11-08T08:34:31.334Z,75.74
2022-11-08T08:37:00.469Z,76.49
2022-11-08T08:39:29.813Z,75.71
2022-11-08T08:41:58.915Z,75.72
2022-11-08T08:44:29.661Z,75.26
2022-11-08T08:46:58.722Z,74.98
2022-11-08T08:49:28.265Z,73.99
2022-11-08T08:51:57.289Z,73.25
2022-11-08T08:54:29.401Z,73.61
2022-11-08T08:56:58.771Z,73.37
2022-11-08T09:02:20.491Z,72.83
2022-11-08T09:04:49.791Z,73.00
2022-11-08T09:07:18.873Z,72.78
2022-11-08T09:09:48.275Z,73.06
2022-11-08T09:12:17.423Z,73.11
2022-11-08T09:14:48.412Z,73.83
2022-11-08T09:17:17.551Z,71.27
2022-11-08T09:19:47.439Z,71.18
2022-11-08T09:22:16.597Z,70.45
2022-11-08T09:24:45.954Z,70.07
2022-11-08T09:27:15.305Z,68.39
2022-11-08T09:29:44.629Z,69.02
2022-11-08T09:32:15.041Z,68.72
2022-11-08T09:34:44.328Z,68.72
2022-11-08T09:37:13.391Z,69.25
2022-11-08T09:39:42.809Z,70.15
2022-11-08T09:42:40.786Z,67.51
2022-11-08T09:45:23.943Z,62.64
2022-11-08T09:48:04.876Z,56.88
2022-11-08T09:50:40.032Z,55.70
2022-11-08T09:53:18.900Z,60.11
2022-11-08T09:55:53.848Z,62.51
2022-11-08T09:58:29.503Z,60.44
2022-11-08T10:00:59.888Z,59.86
2022-11-08T10:03:31.635Z,63.36
2022-11-08T10:06:37.302Z,63.35
2022-11-08T10:09:20.530Z,64.29
2022-11-08T10:12:04.227Z,62.16
2022-11-08T10:14:53.492Z,58.63
2022-11-08T10:17:53.430Z,56.60
2022-11-08T10:20:35.837Z,61.93
2022-11-08T10:23:19.479Z,63.19
2022-11-08T10:25:51.670Z,60.19
2022-11-08T10:28:29.570Z,60.67
2022-11-08T10:30:58.778Z,60.14
2022-11-08T10:33:33.457Z,60.14
2022-11-08T10:36:09.205Z,64.47
2022-11-08T10:38:46.946Z,65.31
2022-11-08T10:41:22.776Z,65.51
2022-11-08T10:43:56.745Z,64.83
2022-11-08T10:46:41.469Z,63.95
2022-11-08T10:49:22.211Z,62.29
2022-11-08T10:51:55.030Z,58.22
2022-11-08T10:54:55.424Z,58.94
2022-11-08T10:57:35.597Z,59.34
2022-11-08T11:00:26.120Z,53.52
2022-11-08T11:02:57.824Z,48.88
2022-11-08T11:05:33.463Z,48.86
2022-11-08T11:08:16.599Z,48.62
2022-11-08T11:10:47.807Z,44.78
2022-11-08T11:13:22.799Z,43.10
2022-11-08T11:15:54.714Z,42.06
2022-11-08T11:18:32.956Z,46.78
2022-11-08T11:21:10.980Z,47.09
2022-11-08T11:23:45.133Z,46.89
2022-11-08T11:26:30.409Z,41.31
2022-11-08T11:29:21.487Z,42.57
2022-11-08T11:31:53.160Z,41.26
2022-11-08T11:34:44.323Z,43.04
2022-11-08T11:37:23.962Z,40.76
2022-11-08T11:40:22.386Z,38.06
2022-11-08T11:43:03.011Z,43.90
2022-11-08T11:45:37.896Z,42.96
2022-11-08T11:48:15.483Z,40.61
2022-11-08T11:50:48.665Z,41.05
2022-11-08T11:53:22.890Z,38.34
2022-11-08T11:56:27.235Z,38.84
2022-11-08T11:59:20.593Z,39.64
2022-11-08T12:02:05.441Z,42.33
2022-11-08T12:04:47.191Z,40.51
2022-11-08T12:07:23.043Z,41.34
2022-11-08T12:10:08.298Z,36.58
2022-11-08T12:12:51.496Z,41.88
2022-11-08T12:15:27.095Z,39.22
2022-11-08T12:18:11.341Z,34.37
2022-11-08T12:20:52.896Z,38.46
2022-11-08T12:23:38.630Z,38.59
2022-11-08T12:26:18.744Z,38.16
2022-11-08T12:29:01.579Z,37.82
2022-11-08T12:31:34.800Z,39.99
2022-11-08T12:34:20.144Z,40.66
2022-11-08T12:37:03.495Z,39.74
2022-11-08T12:39:41.369Z,37.60
2022-11-08T12:42:32.438Z,40.38
2022-11-08T12:45:41.430Z,40.55
2022-11-08T12:48:21.546Z,41.21
2022-11-08T12:51:01.507Z,42.45
2022-11-08T12:53:55.180Z,38.08
2022-11-08T12:56:28.750Z,40.78
2022-11-08T12:58:59.066Z,43.15
2022-11-08T13:01:29.847Z,38.52
2022-11-08T13:04:27.018Z,40.46
2022-11-08T13:07:01.131Z,39.68
2022-11-08T13:09:41.201Z,37.93
2022-11-08T13:12:27.365Z,42.96
2022-11-08T13:14:56.905Z,49.24
2022-11-08T13:17:28.708Z,51.32
2022-11-08T13:20:05.120Z,51.90
2022-11-08T13:23:02.754Z,50.27
2022-11-08T13:25:39.359Z,50.75
2022-11-08T13:28:40.540Z,52.49
2022-11-08T13:31:29.262Z,52.85
2022-11-08T13:34:13.443Z,53.23
2022-11-08T13:36:56.830Z,55.19
2022-11-08T13:39:48.959Z,55.15
2022-11-08T13:42:38.935Z,57.03
2022-11-08T13:45:27.367Z,59.95
2022-11-08T13:47:59.704Z,58.96
2022-11-08T13:50:52.821Z,59.34
2022-11-08T13:53:45.847Z,60.19
2022-11-08T13:56:44.649Z,59.68
2022-11-08T13:59:50.832Z,60.16
2022-11-08T14:02:42.387Z,60.70
2022-11-08T14:05:33.537Z,61.34
2022-11-08T14:08:28.641Z,61.77
2022-11-08T14:11:22.841Z,61.67
2022-11-08T14:14:15.405Z,60.40
2022-11-08T14:16:58.438Z,60.61
2022-11-08T14:19:32.056Z,61.21
2022-11-08T14:22:05.045Z,62.34
2022-11-08T14:24:39.181Z,63.77
2022-11-08T14:27:08.678Z,64.85
2022-11-08T14:29:37.799Z,64.74
2022-11-08T14:32:16.405Z,64.40
2022-11-08T14:34:46.246Z,64.81
2022-11-08T14:37:23.063Z,66.64
2022-11-08T14:39:54.475Z,66.96
2022-11-08T14:42:26.056Z,66.98
2022-11-08T14:44:58.935Z,68.46
2022-11-08T14:47:31.128Z,68.70
2022-11-08T14:50:00.796Z,69.09
2022-11-08T14:52:31.731Z,68.29
2022-11-08T14:55:05.772Z,69.39
2022-11-08T14:57:37.705Z,68.09
2022-11-08T15:00:16.047Z,69.65
2022-11-08T15:02:48.323Z,69.62
2022-11-08T15:05:39.856Z,69.74
2022-11-08T15:08:18.723Z,70.08
2022-11-08T15:11:01.805Z,69.82
2022-11-08T15:13:35.135Z,69.59
2022-11-08T15:16:07.339Z,69.86
2022-11-08T15:18:39.500Z,69.80
2022-11-08T15:21:23.386Z,71.03
2022-11-08T15:23:54.572Z,71.46
2022-11-08T15:26:28.397Z,72.17
2022-11-08T15:29:03.863Z,71.62
2022-11-08T15:31:36.598Z,71.64
2022-11-08T15:34:06.508Z,72.97
2022-11-08T15:36:37.545Z,72.85
2022-11-08T15:39:08.171Z,73.56
2022-11-08T15:41:41.592Z,73.35
2022-11-08T15:44:23.087Z,74.53
2022-11-08T15:46:53.512Z,74.80
2022-11-08T15:49:24.736Z,74.17
2022-11-08T15:51:55.418Z,75.83
2022-11-08T15:54:26.342Z,75.79
2022-11-08T15:56:58.083Z,77.16
2022-11-08T15:59:31.035Z,76.58
2022-11-08T16:02:02.890Z,75.74
2022-11-08T16:04:32.764Z,75.27
2022-11-08T16:07:01.924Z,76.65
2022-11-08T16:09:31.309Z,77.07
2022-11-08T16:12:03.990Z,76.13
2022-11-08T16:14:33.564Z,77.46
2022-11-08T16:17:02.803Z,77.04
2022-11-08T16:19:32.403Z,76.12
2022-11-08T16:22:07.262Z,77.21
2022-11-08T16:24:36.709Z,76.54
2022-11-08T16:27:07.405Z,77.20
2022-11-08T16:29:37.277Z,76.73
2022-11-08T16:32:06.799Z,76.78
2022-11-08T16:34:36.199Z,78.09
2022-11-08T16:37:05.255Z,76.50
2022-11-08T16:39:35.527Z,75.46
2022-11-08T16:42:06.525Z,75.90
2022-11-08T16:44:35.995Z,76.58
2022-11-08T16:47:05.206Z,77.21
2022-11-08T16:49:34.850Z,77.28
2022-11-08T16:52:04.055Z,77.38
2022-11-08T16:54:33.404Z,78.27
2022-11-08T16:57:33.028Z,77.98
2022-11-08T16:59:53.310Z,78.41
2022-11-08T17:02:30.549Z,78.42
2022-11-08T17:04:59.896Z,78.05
2022-11-08T17:07:30.438Z,78.98
2022-11-08T17:09:59.809Z,78.97
2022-11-08T17:12:28.870Z,78.36
2022-11-08T17:14:59.770Z,79.66
2022-11-08T17:17:28.898Z,78.45
2022-11-08T17:19:58.615Z,79.08
2022-11-08T17:22:27.738Z,77.91
2022-11-08T17:24:57.104Z,79.23
2022-11-08T17:27:26.305Z,79.76
2022-11-08T17:29:55.723Z,78.56
2022-11-08T17:32:26.335Z,78.38
2022-11-08T17:34:55.744Z,79.35
2022-11-08T17:37:25.143Z,80.12
2022-11-08T17:39:55.548Z,79.75
2022-11-08T17:42:25.094Z,80.42
2022-11-08T17:44:56.811Z,79.30
2022-11-08T17:47:28.520Z,79.63
2022-11-08T17:49:58.019Z,80.61
2022-11-08T17:52:27.195Z,80.46
2022-11-08T17:54:56.694Z,80.14
2022-11-08T17:57:25.782Z,80.81
2022-11-08T17:59:55.201Z,80.21
2022-11-08T18:02:25.251Z,81.25
2022-11-08T18:04:57.333Z,79.76
2022-11-08T18:07:26.376Z,80.75
2022-11-08T18:09:55.831Z,79.84
2022-11-08T18:12:25.277Z,81.07
2022-11-08T18:14:55.911Z,81.41
2022-11-08T18:17:27.078Z,81.33
2022-11-08T18:19:57.937Z,80.45
2022-11-08T18:22:26.991Z,81.58
2022-11-08T18:24:56.621Z,81.66
2022-11-08T18:27:25.757Z,81.12
2022-11-08T18:29:55.275Z,80.28
2022-11-08T18:32:24.381Z,80.19
2022-11-08T18:34:53.889Z,80.27
2022-11-08T18:37:24.477Z,80.66
2022-11-08T18:39:53.835Z,80.72
2022-11-08T18:42:22.953Z,81.40
2022-11-08T18:44:52.551Z,81.41
2022-11-08T18:47:23.460Z,80.94
2022-11-08T18:49:55.562Z,81.34
2022-11-08T18:52:26.403Z,80.89
2022-11-08T18:54:55.734Z,80.20
2022-11-08T18:57:24.710Z,81.63
2022-11-08T18:59:59.762Z,81.47
2022-11-08T19:02:30.002Z,80.83
2022-11-08T19:05:00.553Z,80.49
2022-11-08T19:07:31.592Z,80.61
2022-11-08T19:10:02.638Z,81.68
2022-11-08T19:12:31.765Z,79.39
2022-11-08T19:15:02.400Z,80.45
2022-11-08T19:17:31.964Z,80.73
2022-11-08T19:20:01.399Z,81.35
2022-11-08T19:22:32.113Z,79.92
2022-11-08T19:25:01.493Z,80.15
2022-11-08T19:27:30.812Z,80.07
2022-11-08T19:30:00.630Z,80.74
2022-11-08T19:32:30.522Z,80.32
2022-11-08T19:34:59.850Z,80.54
2022-11-08T19:37:30.514Z,80.36
2022-11-08T19:40:00.661Z,80.48
2022-11-08T19:42:29.944Z,81.15
2022-11-08T19:44:59.485Z,81.01
2022-11-08T19:47:29.391Z,80.33
2022-11-08T19:49:58.796Z,80.30
2022-11-08T19:52:30.317Z,79.89
2022-11-08T19:55:02.353Z,80.29
2022-11-08T19:57:35.207Z,80.14
2022-11-08T20:00:10.797Z,80.21
2022-11-08T20:02:43.335Z,80.54
2022-11-08T20:05:14.123Z,79.94
2022-11-08T20:07:48.181Z,80.21
2022-11-08T20:10:18.073Z,80.00
2022-11-08T20:12:48.206Z,79.72
2022-11-08T20:15:20.498Z,79.99
2022-11-08T20:17:49.628Z,80.18
2022-11-08T20:20:20.185Z,79.78
2022-11-08T20:22:50.714Z,79.57
2022-11-08T20:25:20.317Z,79.81
2022-11-08T20:27:49.469Z,79.90
2022-11-08T20:30:19.147Z,81.27
2022-11-08T20:32:48.155Z,79.93
2022-11-08T20:35:23.074Z,80.15
2022-11-08T20:37:57.681Z,79.20
2022-11-08T20:40:27.078Z,81.27
2022-11-08T20:42:56.144Z,81.33
2022-11-08T20:45:25.595Z,80.57
2022-11-08T20:47:54.631Z,81.70
2022-11-08T20:50:24.123Z,81.28
2022-11-08T20:52:54.566Z,80.69
2022-11-08T20:55:25.237Z,81.43
2022-11-08T20:57:54.234Z,82.07
2022-11-08T21:00:37.968Z,82.28
2022-11-08T21:03:17.765Z,81.68
2022-11-08T21:05:52.443Z,82.14
2022-11-08T21:11:14.013Z,81.39
2022-11-08T21:13:44.864Z,82.07
2022-11-08T21:16:29.181Z,82.53
2022-11-08T21:18:58.971Z,81.78
2022-11-08T21:21:28.597Z,82.46
2022-11-08T21:23:59.228Z,82.64
2022-11-08T21:26:28.721Z,82.43
2022-11-08T21:28:57.924Z,81.49
2022-11-08T21:31:27.545Z,80.94
2022-11-08T21:33:56.828Z,80.70
2022-11-08T21:36:27.055Z,81.13
2022-11-08T21:38:56.183Z,80.98
2022-11-08T21:41:27.075Z,82.21
2022-11-08T21:43:56.289Z,82.96
2022-11-08T21:46:27.712Z,82.40
2022-11-08T21:48:58.718Z,81.50
2022-11-08T21:51:30.472Z,82.23
2022-11-08T21:54:00.622Z,81.95
2022-11-08T21:56:34.290Z,82.03
2022-11-08T21:59:04.480Z,82.02
2022-11-08T22:01:34.032Z,81.79
2022-11-08T22:04:03.186Z,82.00
2022-11-08T22:06:32.611Z,82.09
2022-11-08T22:09:01.810Z,80.94
2022-11-08T22:11:32.798Z,81.36
2022-11-08T22:14:02.426Z,80.58
2022-11-08T22:16:31.884Z,80.86
2022-11-08T22:19:05.657Z,80.53
2022-11-08T22:21:39.245Z,80.16
2022-11-08T22:24:12.647Z,80.43
2022-11-08T22:26:43.989Z,81.35
2022-11-08T22:29:13.812Z,81.08
2022-11-08T22:31:44.026Z,81.26
2022-11-08T22:34:13.306Z,81.15
2022-11-08T22:36:45.610Z,80.48
2022-11-08T22:39:15.903Z,80.37
2022-11-08T22:41:48.375Z,80.26
2022-11-08T22:44:18.104Z,80.60
2022-11-08T22:46:49.223Z,80.95
2022-11-08T22:49:18.698Z,79.69
2022-11-08T22:51:48.103Z,79.54
2022-11-08T22:54:17.355Z,79.98
2022-11-08T22:56:48.382Z,79.57
2022-11-08T22:59:17.625Z,78.80
2022-11-08T23:01:47.161Z,78.85
2022-11-08T23:04:16.600Z,79.73
2022-11-08T23:06:46.055Z,79.73
2022-11-08T23:09:15.477Z,79.35
2022-11-08T23:12:02.444Z,79.27
2022-11-08T23:14:50.662Z,79.81
2022-11-08T23:17:20.077Z,79.66
2022-11-08T23:20:06.708Z,79.46
2022-11-08T23:22:53.217Z,78.77
2022-11-08T23:25:22.141Z,79.00
2022-11-08T23:28:09.383Z,79.28
2022-11-08T23:30:58.569Z,78.76
2022-11-08T23:33:28.178Z,79.25
2022-11-08T23:36:12.912Z,79.63
2022-11-08T23:38:42.619Z,78.99
2022-11-08T23:41:29.764Z,78.76
2022-11-08T23:44:16.702Z,79.91
2022-11-08T23:46:47.406Z,79.08
2022-11-08T23:49:16.976Z,79.37
2022-11-08T23:51:46.466Z,78.62
2022-11-08T23:54:16.211Z,79.72
2022-11-08T23:56:45.966Z,79.11
2022-11-08T23:59:16.441Z,78.72
